Time;durP1;ratioP1;P1;durP2;ratioP2;P2;SDS_P1;SDS_P2;PMS_P1;PMS_P2;Temp;Humidity;BMP_temperature;BMP_pressure;BME280_temperature;BME280_humidity;BME280_pressure;Samples;Min_cycle;Max_cycle;Signal;HPM_P1;HPM_P2
2021/05/01 00:01:14;;;;;;;;;;;;;;;-144.31;100.00;58022.63;4971270;28;20188;-77
2021/05/01 00:03:40;;;;;;;41.13;22.80;;;;;;;-144.31;100.00;58022.63;4971204;28;20347;-76
2021/05/01 00:06:05;;;;;;;39.75;23.98;;;;;;;-144.31;100.00;58022.63;4970149;28;20041;-77
2021/05/01 00:08:33;;;;;;;52.35;26.20;;;;;;;-144.31;100.00;58022.63;4970864;28;20042;-76
2021/05/01 00:11:03;;;;;;;49.38;24.75;;;;;;;-144.31;100.00;58022.63;4971747;28;20031;-78
2021/05/01 00:13:32;;;;;;;40.05;22.42;;;;;;;-144.31;100.00;58022.63;4960539;28;20089;-78
2021/05/01 00:15:59;;;;;;;36.83;19.88;;;;;;;-144.31;100.00;58022.63;4971678;28;20027;-77
2021/05/01 00:18:25;;;;;;;42.37;20.60;;;;;;;-144.31;100.00;58022.63;4956561;28;20067;-77
2021/05/01 00:20:50;;;;;;;43.92;20.65;;;;;;;-144.31;100.00;58022.63;4960728;28;20152;-76
2021/05/01 00:23:16;;;;;;;35.50;20.58;;;;;;;-144.31;100.00;58022.63;4971052;28;20030;-75
2021/05/01 00:25:42;;;;;;;36.83;18.52;;;;;;;-144.31;100.00;58022.63;4972277;28;20093;-76
2021/05/01 00:28:07;;;;;;;33.15;18.42;;;;;;;-144.31;100.00;58022.63;4973128;28;20034;-77
2021/05/01 00:30:33;;;;;;;28.88;16.50;;;;;;;-144.31;100.00;58022.63;4971259;28;20026;-77
2021/05/01 00:33:01;;;;;;;30.52;18.92;;;;;;;-144.31;100.00;58022.63;4971728;28;20026;-77
2021/05/01 00:35:29;;;;;;;31.27;18.85;;;;;;;-144.31;100.00;58022.63;4969561;28;20461;-76
2021/05/01 00:37:54;;;;;;;33.05;18.30;;;;;;;-144.31;100.00;58022.63;4970892;28;20039;-77
2021/05/01 00:40:22;;;;;;;48.60;22.52;;;;;;;-144.31;100.00;58022.63;4971356;28;20481;-78
2021/05/01 00:42:48;;;;;;;41.58;19.20;;;;;;;-144.31;100.00;58022.63;4968363;28;20022;-77
2021/05/01 00:45:14;;;;;;;35.03;18.27;;;;;;;-144.31;100.00;58022.63;4969640;28;20026;-78
2021/05/01 00:47:42;;;;;;;43.67;21.27;;;;;;;-144.31;100.00;58022.63;4969496;28;20034;-77
2021/05/01 00:50:11;;;;;;;49.10;24.15;;;;;;;-144.31;100.00;58022.63;4970462;28;20034;-78
2021/05/01 00:52:37;;;;;;;41.25;21.38;;;;;;;-144.31;100.00;58022.63;4983445;28;20397;-78
2021/05/01 00:55:06;;;;;;;47.45;23.60;;;;;;;-144.31;100.00;58022.63;4969959;28;20031;-79
2021/05/01 00:57:32;;;;;;;43.67;23.08;;;;;;;-144.31;100.00;58022.63;4971595;28;20035;-77
2021/05/01 01:00:00;;;;;;;43.35;23.23;;;;;;;-144.31;100.00;58022.63;4971832;28;20089;-78
2021/05/01 01:02:28;;;;;;;39.63;19.75;;;;;;;-144.31;100.00;58022.63;4969945;28;20020;-78
2021/05/01 01:04:55;;;;;;;33.88;17.20;;;;;;;-144.31;100.00;58022.63;4987211;28;20035;-76
2021/05/01 01:07:22;;;;;;;30.80;18.60;;;;;;;-144.31;100.00;58022.63;4970783;28;20496;-76
2021/05/01 01:09:49;;;;;;;31.40;20.63;;;;;;;-144.31;100.00;58022.63;4971300;28;20038;-77
2021/05/01 01:12:16;;;;;;;33.27;19.63;;;;;;;-144.31;100.00;58022.63;4971278;28;20046;-78
2021/05/01 01:14:43;;;;;;;27.05;15.65;;;;;;;-144.31;100.00;58022.63;4969629;28;20481;-77
2021/05/01 01:17:09;;;;;;;;;;;;;;;-144.31;100.00;58022.63;4972318;28;20041;-77
2021/05/01 01:19:37;;;;;;;31.52;18.52;;;;;;;-144.31;100.00;58022.63;4969842;28;19997;-77
2021/05/01 01:22:03;;;;;;;25.15;14.63;;;;;;;-144.31;100.00;58022.63;4972467;28;20026;-77
2021/05/01 01:24:30;;;;;;;27.92;16.10;;;;;;;-144.31;100.00;58022.63;4969663;28;20031;-77
2021/05/01 01:26:57;;;;;;;82.43;18.53;;;;;;;-144.31;100.00;58022.63;4970042;28;20045;-77
2021/05/01 01:29:23;;;;;;;53.38;16.65;;;;;;;-144.31;100.00;58022.63;4970738;28;20457;-77
2021/05/01 01:31:51;;;;;;;104.50;15.13;;;;;;;-144.31;100.00;58022.63;4969604;28;20031;-77
2021/05/01 01:34:16;;;;;;;99.10;15.77;;;;;;;-144.31;100.00;58022.63;4970905;28;20465;-77
2021/05/01 01:36:42;;;;;;;44.63;13.05;;;;;;;-144.31;100.00;58022.63;4971788;28;20134;-77
2021/05/01 01:39:07;;;;;;;84.82;15.23;;;;;;;-144.31;100.00;58022.63;4970214;28;20038;-77
2021/05/01 01:41:33;;;;;;;164.75;17.23;;;;;;;-144.31;100.00;58022.63;4969440;28;20397;-78
2021/05/01 01:43:58;;;;;;;169.57;15.68;;;;;;;-144.31;100.00;58022.63;4970001;28;20022;-76
2021/05/01 01:46:24;;;;;;;177.85;18.02;;;;;;;-144.31;100.00;58022.63;4969025;28;20034;-77
2021/05/01 01:48:49;;;;;;;41.85;14.75;;;;;;;-144.31;100.00;58022.63;4969273;28;20125;-78
2021/05/01 01:51:15;;;;;;;89.97;15.35;;;;;;;-144.31;100.00;58022.63;4971029;28;20378;-78
2021/05/01 01:53:40;;;;;;;80.47;15.23;;;;;;;-144.31;100.00;58022.63;4969388;28;20026;-77
2021/05/01 01:56:06;;;;;;;54.15;14.77;;;;;;;-144.31;100.00;58022.63;4957438;28;20513;-78
2021/05/01 01:58:31;;;;;;;74.90;15.40;;;;;;;-144.31;100.00;58022.63;4954898;28;20031;-76
2021/05/01 02:00:57;;;;;;;79.32;18.35;;;;;;;-144.31;100.00;58022.63;4969401;28;20034;-77
2021/05/01 02:03:22;;;;;;;58.10;17.15;;;;;;;-144.31;100.00;58022.63;4970266;28;20536;-76
2021/05/01 02:05:48;;;;;;;52.90;14.18;;;;;;;-144.31;100.00;58022.63;4968936;28;20019;-77
2021/05/01 02:08:14;;;;;;;58.60;16.88;;;;;;;-144.31;100.00;58022.63;4969822;28;20030;-77
2021/05/01 02:10:45;;;;;;;49.83;16.85;;;;;;;-144.31;100.00;58022.63;4969780;28;20077;-79
2021/05/01 02:13:10;;;;;;;37.97;17.95;;;;;;;-144.31;100.00;58022.63;4968168;28;20031;-78
2021/05/01 02:15:36;;;;;;;43.97;21.85;;;;;;;-144.31;100.00;58022.63;4969248;28;20034;-78
2021/05/01 02:18:03;;;;;;;47.40;21.13;;;;;;;-144.31;100.00;58022.63;4968106;28;20046;-78
2021/05/01 02:20:31;;;;;;;43.58;19.52;;;;;;;-144.31;100.00;58022.63;4969475;28;20107;-77
2021/05/01 02:22:57;;;;;;;35.08;16.00;;;;;;;-144.31;100.00;58022.63;4954867;28;20035;-77
2021/05/01 02:25:23;;;;;;;38.13;19.80;;;;;;;-144.31;100.00;58022.63;4970243;28;20038;-77
2021/05/01 02:27:49;;;;;;;54.30;18.90;;;;;;;-144.31;100.00;58022.63;4968060;28;20042;-77
2021/05/01 02:30:18;;;;;;;68.72;19.15;;;;;;;-144.31;100.00;58022.63;4969126;28;20089;-78
2021/05/01 02:32:45;;;;;;;31.33;15.02;;;;;;;-144.31;100.00;58022.63;4966961;28;20035;-78
2021/05/01 02:35:14;;;;;;;30.65;15.23;;;;;;;-144.31;100.00;58022.63;4968716;28;20074;-77
2021/05/01 02:37:41;;;;;;;38.15;19.38;;;;;;;-144.31;100.00;58022.63;4970731;28;20062;-76
2021/05/01 02:40:09;;;;;;;37.30;19.15;;;;;;;-144.31;100.00;58022.63;4967779;28;20046;-77
2021/05/01 02:42:34;;;;;;;;;;;;;;;-144.31;100.00;58022.63;4969380;28;20026;-76
2021/05/01 02:44:59;;;;;;;24.17;14.45;;;;;;;-144.31;100.00;58022.63;4969059;28;20292;-77
2021/05/01 02:47:26;;;;;;;24.40;14.55;;;;;;;-144.31;100.00;58022.63;4968208;28;20030;-77
2021/05/01 02:49:54;;;;;;;30.83;18.98;;;;;;;-144.31;100.00;58022.63;4973366;28;20623;-77
2021/05/01 02:52:21;;;;;;;38.40;18.80;;;;;;;-144.31;100.00;58022.63;4971265;28;20034;-77
2021/05/01 02:54:46;;;;;;;;;;;;;;;-144.31;100.00;58022.63;4970812;28;20110;-77
2021/05/01 02:57:12;;;;;;;23.05;15.00;;;;;;;-144.31;100.00;58022.63;4969542;28;20009;-77
2021/05/01 02:59:40;;;;;;;25.00;17.30;;;;;;;-144.31;100.00;58022.63;4970349;28;20488;-76
2021/05/01 03:02:05;;;;;;;28.98;16.58;;;;;;;-144.31;100.00;58022.63;4966685;28;20031;-76
2021/05/01 03:04:30;;;;;;;27.58;16.38;;;;;;;-144.31;100.00;58022.63;4967138;28;20033;-76
2021/05/01 03:06:56;;;;;;;29.85;16.25;;;;;;;-144.31;100.00;58022.63;4970078;28;20448;-77
2021/05/01 03:09:21;;;;;;;26.60;15.60;;;;;;;-144.31;100.00;58022.63;4973468;28;20034;-77
2021/05/01 03:11:49;;;;;;;28.20;17.15;;;;;;;-144.31;100.00;58022.63;4972172;28;20031;-77
2021/05/01 03:14:15;;;;;;;24.75;13.57;;;;;;;-144.31;100.00;58022.63;4971944;28;20058;-77
2021/05/01 03:16:40;;;;;;;24.23;16.02;;;;;;;-144.31;100.00;58022.63;4973389;28;20046;-77
2021/05/01 03:19:06;;;;;;;30.48;18.00;;;;;;;-144.31;100.00;58022.63;4974193;28;20038;-77
2021/05/01 03:21:31;;;;;;;28.92;16.27;;;;;;;-144.31;100.00;58022.63;4971789;28;20093;-76
2021/05/01 03:23:57;;;;;;;26.23;14.45;;;;;;;-144.31;100.00;58022.63;4972606;28;20029;-76
2021/05/01 03:26:22;;;;;;;23.02;14.10;;;;;;;-144.31;100.00;58022.63;4971254;28;20453;-77
2021/05/01 03:28:48;;;;;;;27.38;16.42;;;;;;;-144.31;100.00;58022.63;4972991;28;20486;-77
2021/05/01 03:31:14;;;;;;;25.33;15.82;;;;;;;-144.31;100.00;58022.63;4986626;28;20031;-77
2021/05/01 03:33:39;;;;;;;25.00;14.98;;;;;;;-144.31;100.00;58022.63;4989268;28;20489;-77
2021/05/01 03:36:05;;;;;;;26.42;16.23;;;;;;;-144.31;100.00;58022.63;4967436;28;20398;-77
2021/05/01 03:38:32;;;;;;;27.15;16.05;;;;;;;-144.31;100.00;58022.63;4980039;28;20031;-77
2021/05/01 03:40:57;;;;;;;22.17;14.40;;;;;;;-144.31;100.00;58022.63;4969526;28;20034;-79
2021/05/01 03:43:23;;;;;;;20.13;13.55;;;;;;;-144.31;100.00;58022.63;4971226;28;20042;-77
2021/05/01 03:45:48;;;;;;;21.30;12.60;;;;;;;-144.31;100.00;58022.63;4973017;28;20038;-79
2021/05/01 03:48:14;;;;;;;20.75;12.95;;;;;;;-144.31;100.00;58022.63;4971476;28;20027;-77
2021/05/01 03:50:41;;;;;;;19.17;12.40;;;;;;;-144.31;100.00;58022.63;4974006;28;20074;-77
2021/05/01 03:53:09;;;;;;;18.88;11.75;;;;;;;-144.31;100.00;58022.63;4976074;28;20097;-77
2021/05/01 03:55:35;;;;;;;17.70;10.65;;;;;;;-144.31;100.00;58022.63;4976568;28;20042;-77
2021/05/01 03:58:00;;;;;;;17.27;11.13;;;;;;;-144.31;100.00;58022.63;4977655;28;20405;-77
2021/05/01 04:00:26;;;;;;;19.10;12.85;;;;;;;-144.31;100.00;58022.63;4972409;28;20150;-77
2021/05/01 04:02:52;;;;;;;23.90;14.45;;;;;;;-144.31;100.00;58022.63;4970082;28;20049;-77
2021/05/01 04:05:18;;;;;;;19.35;10.68;;;;;;;-144.31;100.00;58022.63;4971287;28;20038;-77
2021/05/01 04:07:43;;;;;;;20.55;11.48;;;;;;;-144.31;100.00;58022.63;4970692;28;20051;-77
2021/05/01 04:10:09;;;;;;;16.45;9.10;;;;;;;-144.31;100.00;58022.63;4964971;28;20046;-77
2021/05/01 04:12:35;;;;;;;20.02;11.15;;;;;;;-144.31;100.00;58022.63;4970545;28;20027;-77
2021/05/01 04:15:03;;;;;;;20.55;11.23;;;;;;;-144.31;100.00;58022.63;4971724;28;20023;-78
2021/05/01 04:17:28;;;;;;;20.15;12.52;;;;;;;-144.31;100.00;58022.63;4970942;28;20397;-77
2021/05/01 04:19:54;;;;;;;21.88;11.73;;;;;;;-144.31;100.00;58022.63;4980340;28;20037;-77
2021/05/01 04:22:21;;;;;;;18.60;12.73;;;;;;;-144.31;100.00;58022.63;4974172;28;20030;-78
2021/05/01 04:24:46;;;;;;;21.77;13.98;;;;;;;-144.31;100.00;58022.63;4972637;28;20512;-78
2021/05/01 04:27:12;;;;;;;26.40;14.40;;;;;;;-144.31;100.00;58022.63;4964860;28;20578;-78
2021/05/01 04:29:37;;;;;;;23.08;13.70;;;;;;;-144.31;100.00;58022.63;4974888;28;20070;-77
2021/05/01 04:32:03;;;;;;;21.48;12.13;;;;;;;-144.31;100.00;58022.63;4971421;28;20516;-78
2021/05/01 04:34:28;;;;;;;22.83;14.02;;;;;;;-144.31;100.00;58022.63;4970897;28;20122;-78
2021/05/01 04:36:54;;;;;;;19.92;12.80;;;;;;;-144.31;100.00;58022.63;4972583;28;20485;-78
2021/05/01 04:39:19;;;;;;;21.45;13.98;;;;;;;-144.31;100.00;58022.63;4970964;28;20552;-78
2021/05/01 04:41:45;;;;;;;21.15;14.00;;;;;;;-144.31;100.00;58022.63;4972984;28;20081;-78
2021/05/01 04:44:11;;;;;;;20.30;13.95;;;;;;;-144.31;100.00;58022.63;4970297;28;20085;-78
2021/05/01 04:46:36;;;;;;;21.45;12.43;;;;;;;-144.31;100.00;58022.63;4971741;28;20054;-77
2021/05/01 04:49:07;;;;;;;17.52;11.82;;;;;;;-144.31;100.00;58022.63;4968585;28;20097;-78
2021/05/01 04:51:34;;;;;;;17.48;12.65;;;;;;;-144.31;100.00;58022.63;4978353;28;20433;-78
2021/05/01 04:54:00;;;;;;;27.73;16.70;;;;;;;-144.31;100.00;58022.63;4971729;28;20030;-79
2021/05/01 04:56:26;;;;;;;24.35;14.48;;;;;;;-144.31;100.00;58022.63;4970428;28;20035;-78
2021/05/01 04:58:51;;;;;;;22.45;12.05;;;;;;;-144.31;100.00;58022.63;4970271;28;20565;-76
2021/05/01 05:01:17;;;;;;;20.50;12.25;;;;;;;-144.31;100.00;58022.63;4967935;28;20520;-77
2021/05/01 05:03:42;;;;;;;19.98;12.52;;;;;;;-144.31;100.00;58022.63;4971560;28;20027;-77
2021/05/01 05:06:08;;;;;;;23.15;14.30;;;;;;;-144.31;100.00;58022.63;4968793;28;20508;-77
2021/05/01 05:08:33;;;;;;;20.35;11.57;;;;;;;-144.31;100.00;58022.63;4969626;28;20033;-76
2021/05/01 05:11:03;;;;;;;18.13;13.43;;;;;;;-144.31;100.00;58022.63;4968682;28;20493;-77
2021/05/01 05:13:29;;;;;;;23.02;16.42;;;;;;;-144.31;100.00;58022.63;4970573;28;20575;-77
2021/05/01 05:15:54;;;;;;;26.73;16.15;;;;;;;-144.31;100.00;58022.63;4971366;28;20034;-77
2021/05/01 05:18:20;;;;;;;27.05;17.33;;;;;;;-144.31;100.00;58022.63;4970758;28;20018;-77
2021/05/01 05:20:46;;;;;;;22.63;15.32;;;;;;;-144.31;100.00;58022.63;4969051;28;20030;-77
2021/05/01 05:23:12;;;;;;;21.30;14.40;;;;;;;-144.31;100.00;58022.63;4967994;28;20046;-77
2021/05/01 05:25:37;;;;;;;18.92;13.27;;;;;;;-144.31;100.00;58022.63;4970159;28;20038;-77
2021/05/01 05:28:03;;;;;;;18.70;13.23;;;;;;;-144.31;100.00;58022.63;4969500;28;20504;-77
2021/05/01 05:30:28;;;;;;;19.90;12.75;;;;;;;-144.31;100.00;58022.63;4971320;28;20041;-77
2021/05/01 05:32:54;;;;;;;16.75;11.60;;;;;;;-144.31;100.00;58022.63;4968877;28;20042;-77
2021/05/01 05:35:22;;;;;;;17.35;12.70;;;;;;;-144.31;100.00;58022.63;4968948;28;20468;-77
2021/05/01 05:37:48;;;;;;;16.90;13.18;;;;;;;-144.31;100.00;58022.63;4967163;28;20034;-77
2021/05/01 05:40:15;;;;;;;16.70;12.05;;;;;;;-144.31;100.00;58022.63;4985423;28;20039;-78
2021/05/01 05:42:44;;;;;;;16.00;12.82;;;;;;;-144.31;100.00;58022.63;4968354;28;20027;-78
2021/05/01 05:45:12;;;;;;;15.63;11.95;;;;;;;-144.31;100.00;58022.63;4970215;28;20057;-74
2021/05/01 05:47:37;;;;;;;18.67;14.88;;;;;;;-144.31;100.00;58022.63;4966745;28;20035;-74
2021/05/01 05:50:04;;;;;;;17.55;14.00;;;;;;;-144.31;100.00;58022.63;4956776;28;20037;-74
2021/05/01 05:52:31;;;;;;;17.20;13.15;;;;;;;-144.31;100.00;58022.63;4970235;28;20449;-74
2021/05/01 05:54:58;;;;;;;18.48;14.52;;;;;;;-144.31;100.00;58022.63;4981379;28;20106;-75
2021/05/01 05:57:26;;;;;;;17.15;14.73;;;;;;;-144.31;100.00;58022.63;4970813;28;20038;-74
2021/05/01 05:59:52;;;;;;;20.98;15.00;;;;;;;-144.31;100.00;58022.63;4967959;28;20125;-75
2021/05/01 06:02:21;;;;;;;16.65;13.38;;;;;;;-144.31;100.00;58022.63;4969760;28;20027;-74
2021/05/01 06:04:56;;;;;;;18.15;13.55;;;;;;;-144.31;100.00;58022.63;4970901;28;20034;-75
2021/05/01 06:07:50;;;;;;;20.08;14.93;;;;;;;-144.31;100.00;58022.63;4970370;28;20022;-74
2021/05/01 06:10:15;;;;;;;15.25;12.57;;;;;;;-144.31;100.00;58022.63;4967475;28;20066;-75
2021/05/01 06:12:43;;;;;;;14.80;11.43;;;;;;;-144.31;100.00;58022.63;4985199;28;20031;-75
2021/05/01 06:15:18;;;;;;;14.73;12.50;;;;;;;-144.31;100.00;58022.63;4988970;28;20375;-75
2021/05/01 06:17:44;;;;;;;15.57;12.68;;;;;;;-144.31;100.00;58022.63;4970081;28;20031;-74
2021/05/01 06:20:11;;;;;;;13.88;11.23;;;;;;;-144.31;100.00;58022.63;4971218;28;20517;-75
2021/05/01 06:22:38;;;;;;;13.25;11.27;;;;;;;-144.31;100.00;58022.63;4970572;28;20030;-74
2021/05/01 06:25:09;;;;;;;13.38;11.88;;;;;;;-144.31;100.00;58022.63;4969544;28;20085;-75
2021/05/01 06:27:34;;;;;;;15.80;12.50;;;;;;;-144.31;100.00;58022.63;4971092;28;20093;-73
2021/05/01 06:30:02;;;;;;;15.05;11.68;;;;;;;-144.31;100.00;58022.63;4969106;28;20032;-75
2021/05/01 06:32:28;;;;;;;16.05;12.43;;;;;;;-144.31;100.00;58022.63;4969909;28;20073;-74
2021/05/01 06:34:55;;;;;;;14.07;11.63;;;;;;;-144.31;100.00;58022.63;4970215;28;20485;-75
2021/05/01 06:37:22;;;;;;;;;;;;;;;-144.31;100.00;58022.63;4970106;28;20593;-75
2021/05/01 06:39:51;;;;;;;15.60;12.43;;;;;;;-144.31;100.00;58022.63;4970796;28;19918;-75
2021/05/01 06:42:26;;;;;;;14.65;13.05;;;;;;;-144.31;100.00;58022.63;4968111;28;20121;-74
2021/05/01 06:45:04;;;;;;;14.43;12.93;;;;;;;-144.31;100.00;58022.63;4969499;28;20045;-75
2021/05/01 06:47:30;;;;;;;;;;;;;;;-144.31;100.00;58022.63;4985245;28;20035;-74
2021/05/01 06:50:11;;;;;;;13.80;11.90;;;;;;;-144.31;100.00;58022.63;4966391;28;19918;-74
2021/05/01 06:52:42;;;;;;;13.18;11.40;;;;;;;-144.31;100.00;58022.63;4967781;28;20035;-73
2021/05/01 06:55:09;;;;;;;12.05;10.43;;;;;;;-144.31;100.00;58022.63;4967081;28;20037;-74
2021/05/01 06:57:39;;;;;;;13.27;11.45;;;;;;;-144.31;100.00;58022.63;4967172;28;20037;-74
2021/05/01 07:00:08;;;;;;;14.95;12.48;;;;;;;-144.31;100.00;58022.63;4964162;28;20417;-74
2021/05/01 07:02:39;;;;;;;14.18;12.68;;;;;;;-144.31;100.00;58022.63;4966653;28;20456;-73
2021/05/01 07:05:09;;;;;;;14.63;12.13;;;;;;;-144.31;100.00;58022.63;4972748;28;20038;-73
2021/05/01 07:07:35;;;;;;;13.75;11.38;;;;;;;-144.31;100.00;58022.63;4975884;28;20031;-73
2021/05/01 07:10:03;;;;;;;12.75;10.35;;;;;;;-144.31;100.00;58022.63;4963142;28;20484;-74
2021/05/01 07:12:28;;;;;;;12.65;10.57;;;;;;;-144.31;100.00;58022.63;4964768;28;20042;-74
2021/05/01 07:14:54;;;;;;;13.23;10.73;;;;;;;-144.31;100.00;58022.63;4950639;28;20086;-74
2021/05/01 07:17:20;;;;;;;11.82;10.13;;;;;;;-144.31;100.00;58022.63;4949643;29;20464;-75
2021/05/01 07:19:46;;;;;;;12.50;11.18;;;;;;;-144.31;100.00;58022.63;4949446;29;20031;-75
2021/05/01 07:22:13;;;;;;;13.18;11.68;;;;;;;-144.31;100.00;58022.63;4973151;28;20105;-75
2021/05/01 07:24:38;;;;;;;14.88;13.32;;;;;;;-144.31;100.00;58022.63;4984863;28;20048;-74
2021/05/01 07:27:05;;;;;;;13.38;11.98;;;;;;;-144.31;100.00;58022.63;4968789;28;20497;-74
2021/05/01 07:29:40;;;;;;;15.00;12.73;;;;;;;-144.31;100.00;58022.63;4970078;28;20035;-74
2021/05/01 07:32:08;;;;;;;12.45;11.07;;;;;;;-144.31;100.00;58022.63;4969613;28;20041;-74
2021/05/01 07:34:34;;;;;;;12.32;10.60;;;;;;;-144.31;100.00;58022.63;4969044;28;20504;-73
2021/05/01 07:37:09;;;;;;;15.15;11.50;;;;;;;-144.31;100.00;58022.63;4959084;28;20493;-74
2021/05/01 07:39:35;;;;;;;14.90;12.10;;;;;;;-144.31;100.00;58022.63;4981744;28;20023;-76
2021/05/01 07:42:03;;;;;;;13.32;11.45;;;;;;;-144.31;100.00;58022.63;4968408;28;20023;-75
2021/05/01 07:44:35;;;;;;;12.25;11.05;;;;;;;-144.31;100.00;58022.63;4966264;28;20093;-74
2021/05/01 07:47:02;;;;;;;13.63;11.82;;;;;;;-144.31;100.00;58022.63;4966096;28;20026;-74
2021/05/01 07:49:30;;;;;;;12.85;11.45;;;;;;;-144.31;100.00;58022.63;4969755;28;20026;-74
2021/05/01 07:51:56;;;;;;;12.13;10.93;;;;;;;-144.31;100.00;58022.63;4970175;28;20031;-74
2021/05/01 07:54:22;;;;;;;12.63;11.32;;;;;;;-144.31;100.00;58022.63;4969638;28;20469;-74
2021/05/01 07:56:48;;;;;;;12.45;11.25;;;;;;;-144.31;100.00;58022.63;4971059;28;20038;-74
2021/05/01 07:59:15;;;;;;;11.98;10.75;;;;;;;-144.31;100.00;58022.63;4971547;28;20031;-74
2021/05/01 08:01:44;;;;;;;12.32;11.00;;;;;;;-144.31;100.00;58022.63;4971692;28;20078;-73
2021/05/01 08:04:10;;;;;;;11.63;9.95;;;;;;;-144.31;100.00;58022.63;4984146;28;20027;-74
2021/05/01 08:06:37;;;;;;;11.45;10.30;;;;;;;-144.31;100.00;58022.63;4971044;28;20452;-74
2021/05/01 08:09:03;;;;;;;12.95;11.63;;;;;;;-144.31;100.00;58022.63;4985303;28;20123;-74
2021/05/01 08:11:29;;;;;;;11.15;10.02;;;;;;;-144.31;100.00;58022.63;4969575;28;20042;-75
2021/05/01 08:13:59;;;;;;;14.32;10.65;;;;;;;-144.31;100.00;58022.63;4972134;28;20520;-73
2021/05/01 08:16:24;;;;;;;11.30;10.15;;;;;;;-144.31;100.00;58022.63;4971340;28;20475;-74
2021/05/01 08:18:53;;;;;;;12.18;10.07;;;;;;;-144.31;100.00;58022.63;4969246;28;20030;-72
2021/05/01 08:21:21;;;;;;;11.77;10.40;;;;;;;-144.31;100.00;58022.63;4969808;28;20082;-73
2021/05/01 08:23:47;;;;;;;11.05;9.77;;;;;;;-144.31;100.00;58022.63;4970115;28;20097;-73
2021/05/01 08:26:15;;;;;;;10.98;9.77;;;;;;;-144.31;100.00;58022.63;4987471;28;20443;-73
2021/05/01 08:28:40;;;;;;;11.35;8.10;;;;;;;-144.31;100.00;58022.63;4972179;28;20038;-74
2021/05/01 08:31:06;;;;;;;10.50;9.43;;;;;;;-144.31;100.00;58022.63;4972569;28;20508;-75
2021/05/01 08:33:35;;;;;;;11.00;9.80;;;;;;;-144.31;100.00;58022.63;4972162;28;20312;-77
2021/05/01 08:36:00;;;;;;;11.55;9.95;;;;;;;-144.31;100.00;58022.63;4971278;28;20473;-75
2021/05/01 08:38:28;;;;;;;10.93;9.82;;;;;;;-144.31;100.00;58022.63;4975098;28;20358;-71
2021/05/01 08:40:55;;;;;;;;;;;;;;;-144.31;100.00;58022.63;4972232;28;20410;-75
2021/05/01 08:43:21;;;;;;;12.57;9.88;;;;;;;-144.31;100.00;58022.63;4971591;28;19929;-74
2021/05/01 08:45:47;;;;;;;11.75;8.88;;;;;;;-144.31;100.00;58022.63;4977291;28;20494;-74
2021/05/01 08:48:15;;;;;;;11.25;9.90;;;;;;;-144.31;100.00;58022.63;4965765;28;20120;-75
2021/05/01 08:50:50;;;;;;;11.95;9.68;;;;;;;-144.31;100.00;58022.63;4956371;28;20022;-76
2021/05/01 08:53:16;;;;;;;9.50;8.43;;;;;;;-144.31;100.00;58022.63;4959011;28;20042;-77
2021/05/01 08:57:52;;;;;;;11.23;10.02;;;;;;;;;;5062302;28;20369;-74
2021/05/01 09:00:18;;;;;;;10.60;9.13;;;;;;;;;;5023574;28;20503;-74
2021/05/01 09:02:43;;;;;;;10.35;9.23;;;;;;;;;;5019040;28;20045;-74
2021/05/01 09:05:10;;;;;;;11.88;10.25;;;;;;;;;;5025274;28;20029;-74
2021/05/01 09:07:39;;;;;;;11.30;10.07;;;;;;;;;;5025313;28;20036;-74
2021/05/01 09:10:05;;;;;;;9.80;8.80;;;;;;;;;;5023964;28;20022;-74
2021/05/01 09:12:45;;;;;;;10.13;8.98;;;;;;;;;;5024787;28;20407;-74
2021/05/01 09:15:17;;;;;;;10.75;9.65;;;;;;;;;;5024182;28;20017;-74
2021/05/01 09:17:42;;;;;;;9.20;8.30;;;;;;;;;;5023849;28;20373;-74
2021/05/01 09:20:15;;;;;;;9.20;8.23;;;;;;;;;;5024112;28;20017;-74
2021/05/01 09:22:53;;;;;;;9.65;8.45;;;;;;;;;;5023996;28;20025;-73
2021/05/01 09:25:19;;;;;;;8.95;7.95;;;;;;;;;;5024760;28;20025;-74
2021/05/01 09:28:20;;;;;;;9.25;8.20;;;;;;;;;;5023100;28;20022;-74
2021/05/01 09:30:57;;;;;;;9.38;8.10;;;;;;;;;;5001899;28;20038;-74
2021/05/01 09:33:23;;;;;;;;;;;;;;;;;;5021752;28;20520;-75
2021/05/01 09:35:55;;;;;;;8.60;7.57;;;;;;;;;;5011355;28;19961;-73
2021/05/01 09:38:23;;;;;;;9.55;7.60;;;;;;;;;;5013679;28;20028;-76
2021/05/01 09:40:49;;;;;;;8.23;7.43;;;;;;;;;;5022513;28;20392;-73
2021/05/01 09:43:16;;;;;;;9.23;7.38;;;;;;;;;;5022652;28;20026;-74
2021/05/01 09:45:42;;;;;;;8.57;7.68;;;;;;;;;;5021668;28;20021;-74
2021/05/01 09:48:14;;;;;;;9.00;7.90;;;;;;;;;;5024544;28;20080;-74
2021/05/01 09:50:40;;;;;;;7.93;7.13;;;;;;;;;;5023608;28;20026;-75
2021/05/01 09:53:10;;;;;;;8.23;7.43;;;;;;;;;;5023741;28;20026;-74
2021/05/01 09:55:39;;;;;;;10.57;9.45;;;;;;;;;;5006788;28;20060;-74
2021/05/01 09:58:10;;;;;;;8.65;6.68;;;;;;;;;;5025512;28;20060;-74
2021/05/01 10:00:38;;;;;;;7.57;6.80;;;;;;;;;;5022879;28;20014;-75
2021/05/01 10:03:03;;;;;;;7.57;6.53;;;;;;;;;;5009914;28;20030;-76
2021/05/01 10:05:29;;;;;;;7.43;6.63;;;;;;;;;;5002476;28;20026;-74
2021/05/01 10:07:55;;;;;;;6.43;5.68;;;;;;;;;;5015594;28;20063;-75
2021/05/01 10:10:20;;;;;;;8.10;6.63;;;;;;;;;;5009681;28;20476;-76
2021/05/01 10:12:45;;;;;;;8.82;7.93;;;;;;;;;;5013137;28;20099;-72
2021/05/01 10:15:14;;;;;;;7.95;7.15;;;;;;;;;;5011613;28;20100;-72
2021/05/01 10:17:39;;;;;;;7.72;7.00;;;;;;;;;;5012915;28;20022;-73
2021/05/01 10:20:05;;;;;;;13.25;11.82;;;;;;;;;;5011926;28;20033;-74
2021/05/01 10:22:34;;;;;;;10.93;9.80;;;;;;;;;;5010122;28;20112;-74
2021/05/01 10:25:01;;;;;;;9.95;7.88;;;;;;;;;;5010529;28;20025;-75
2021/05/01 10:27:27;;;;;;;9.33;7.80;;;;;;;;;;5010950;28;20025;-74
2021/05/01 10:30:03;;;;;;;14.68;13.20;;;;;;;;;;5010578;28;20180;-74
2021/05/01 10:32:32;;;;;;;10.98;9.40;;;;;;;;;;5010943;28;20491;-73
2021/05/01 10:34:58;;;;;;;10.30;8.27;;;;;;;;;;5023947;28;20025;-72
2021/05/01 10:37:30;;;;;;;8.07;7.15;;;;;;;;;;5011016;28;20583;-73
2021/05/01 10:39:55;;;;;;;9.38;7.78;;;;;;;;;;4999675;28;20027;-73
2021/05/01 10:42:21;;;;;;;9.23;7.50;;;;;;;;;;4992353;28;20026;-74
2021/05/01 10:44:55;;;;;;;11.10;8.07;;;;;;;;;;5006335;28;20488;-74
2021/05/01 10:47:23;;;;;;;14.10;12.60;;;;;;;;;;5012444;28;20535;-75
2021/05/01 10:49:48;;;;;;;;;;;;;;;;;;5043949;28;20030;-74
2021/05/01 10:52:18;;;;;;;10.68;9.60;;;;;;;;;;5010217;28;20378;-74
2021/05/01 10:54:57;;;;;;;10.10;7.78;;;;;;;;;;5011194;28;20604;-74
2021/05/01 10:57:22;;;;;;;7.47;6.68;;;;;;;;;;4990791;28;20442;-73
2021/05/01 11:00:00;;;;;;;8.10;7.28;;;;;;;;;;4992162;28;20022;-74
2021/05/01 11:02:32;;;;;;;8.70;7.68;;;;;;;;;;4994018;28;20296;-73
2021/05/01 11:04:59;;;;;;;8.15;7.00;;;;;;;;;;4991771;28;20285;-73
2021/05/01 11:07:24;;;;;;;7.97;7.00;;;;;;;;;;4991927;28;20022;-73
2021/05/01 11:09:50;;;;;;;8.60;7.40;;;;;;;;;;4990513;28;20104;-74
2021/05/01 11:12:17;;;;;;;8.27;7.38;;;;;;;;;;4995707;28;20476;-73
2021/05/01 11:14:49;;;;;;;7.57;6.80;;;;;;;;;;5006915;28;20038;-73
2021/05/01 11:17:28;;;;;;;7.68;6.70;;;;;;;;;;5013434;28;20026;-73
2021/05/01 11:19:58;;;;;;;8.43;7.60;;;;;;;;;;5004733;28;20025;-73
2021/05/01 11:22:24;;;;;;;8.43;7.40;;;;;;;;;;5025679;28;20013;-73
2021/05/01 11:24:50;;;;;;;8.07;7.28;;;;;;;;;;5030246;28;20097;-73
2021/05/01 11:27:18;;;;;;;7.90;7.03;;;;;;;;;;5028467;28;20033;-74
2021/05/01 11:29:43;;;;;;;8.13;7.00;;;;;;;;;;5030423;28;20422;-73
2021/05/01 11:32:08;;;;;;;7.82;7.03;;;;;;;;;;5023248;28;20028;-73
2021/05/01 11:34:34;;;;;;;8.93;7.30;;;;;;;;;;5007930;28;20026;-74
2021/05/01 11:37:03;;;;;;;8.77;7.88;;;;;;;;;;5007199;28;20087;-74
2021/05/01 11:39:29;;;;;;;8.52;7.60;;;;;;;;;;5007519;28;20137;-75
2021/05/01 11:41:54;;;;;;;12.95;11.48;;;;;;;;;;5007105;28;20037;-74